Time;durP1;ratioP1;P1;durP2;ratioP2;P2;SDS_P1;SDS_P2;PMS_P1;PMS_P2;Temp;Humidity;BMP_temperature;BMP_pressure;BME280_temperature;BME280_humidity;BME280_pressure;Samples;Min_cycle;Max_cycle;Signal;HPM_P1;HPM_P2
2022/05/20 00:00:33;;;;;;;9.57;3.85;;;;;;;11.97;nan;96191.88;5052235;28;20446;-86
2022/05/20 00:03:01;;;;;;;15.30;5.10;;;;;;;11.65;nan;96144.06;5052347;28;20048;-85
2022/05/20 00:05:27;;;;;;;12.75;4.25;;;;;;;12.37;nan;96258.56;5051541;28;20456;-85
2022/05/20 00:07:54;;;;;;;10.57;4.40;;;;;;;12.45;nan;96259.13;5042994;28;20060;-85
2022/05/20 00:10:20;;;;;;;12.65;4.18;;;;;;;11.18;nan;96075.75;5048141;28;20068;-85
2022/05/20 00:12:47;;;;;;;19.13;4.55;;;;;;;9.88;nan;95872.06;5050820;28;20059;-85
2022/05/20 00:15:19;;;;;;;15.77;4.57;;;;;;;13.03;nan;96306.78;5063966;28;20126;-84
2022/05/20 00:17:45;;;;;;;19.17;5.30;;;;;;;11.93;nan;96162.31;5053517;28;20118;-85
2022/05/20 00:20:13;;;;;;;15.88;4.22;;;;;;;12.95;nan;96312.59;5050332;28;20037;-85
2022/05/20 00:22:39;;;;;;;14.23;4.80;;;;;;;12.94;nan;96318.97;5069182;28;20041;-85
2022/05/20 00:27:50;;;;;;;10.65;4.07;;;;;;;12.09;nan;96194.31;5071693;28;20487;-86
2022/05/20 00:30:16;;;;;;;13.25;4.18;;;;;;;12.17;nan;96213.25;5048315;28;20060;-85
2022/05/20 00:32:41;;;;;;;9.75;4.47;;;;;;;12.88;nan;96332.53;5036773;28;20116;-85
2022/05/20 00:35:08;;;;;;;12.02;4.03;;;;;;;11.89;nan;96169.22;5058091;28;20047;-85
2022/05/20 00:37:33;;;;;;;22.42;4.45;;;;;;;12.07;nan;96212.38;5053303;28;20045;-86
2022/05/20 00:39:59;;;;;;;12.45;3.92;;;;;;;12.42;nan;96267.63;5071597;28;20055;-85
2022/05/20 00:42:25;;;;;;;12.52;4.10;;;;;;;12.57;nan;96312.94;5070562;28;20419;-85
2022/05/20 00:44:51;;;;;;;15.55;3.70;;;;;;;12.44;nan;96284.13;5053254;28;20205;-85
2022/05/20 00:47:16;;;;;;;9.32;3.97;;;;;;;11.46;nan;96130.38;5052930;28;20124;-86
2022/05/20 00:49:55;;;;;;;14.77;4.53;;;;;;;12.77;nan;96334.34;5071537;28;20178;-85
2022/05/20 00:52:25;;;;;;;8.80;4.55;;;;;;;11.87;nan;96205.09;5036264;28;20041;-85
2022/05/20 00:54:56;;;;;;;11.60;4.55;;;;;;;11.73;nan;96193.28;5069309;28;20411;-85
2022/05/20 00:57:29;;;;;;;19.03;4.27;;;;;;;12.41;nan;96297.94;5070211;28;20037;-85
2022/05/20 01:00:00;;;;;;;10.20;3.90;;;;;;;11.89;nan;96208.28;5071005;28;20075;-85
2022/05/20 01:02:27;;;;;;;10.60;4.65;;;;;;;11.64;nan;96184.16;5052869;28;20025;-85
2022/05/20 01:04:56;;;;;;;10.90;4.45;;;;;;;11.59;nan;96175.09;5045011;28;20045;-85
2022/05/20 01:07:23;;;;;;;7.28;4.10;;;;;;;11.87;nan;96229.81;5032242;28;20495;-85
2022/05/20 01:09:49;;;;;;;5.90;3.70;;;;;;;12.18;nan;96273.34;5044223;28;20049;-85
2022/05/20 01:12:14;;;;;;;14.98;3.95;;;;;;;12.51;nan;96329.94;5061833;28;20036;-85
2022/05/20 01:14:40;;;;;;;15.23;4.22;;;;;;;10.92;nan;96094.38;5046806;28;20098;-85
2022/05/20 01:17:08;;;;;;;14.77;4.25;;;;;;;11.63;nan;96209.13;5064972;28;20033;-85
2022/05/20 01:19:40;;;;;;;11.05;4.13;;;;;;;11.86;nan;96222.09;5035613;28;20495;-85
2022/05/20 01:22:09;;;;;;;11.48;4.10;;;;;;;12.19;nan;96317.50;5068474;28;20511;-85
2022/05/20 01:24:35;;;;;;;10.70;3.65;;;;;;;12.16;nan;96315.34;5033144;28;20554;-85
2022/05/20 01:27:00;;;;;;;12.32;4.03;;;;;;;11.74;nan;96256.84;5051770;28;20130;-85
2022/05/20 01:29:26;;;;;;;7.65;4.20;;;;;;;12.22;nan;96337.44;5067604;28;20098;-85
2022/05/20 01:31:52;;;;;;;9.70;4.13;;;;;;;12.04;nan;96324.56;5055457;28;20025;-85
2022/05/20 01:34:18;;;;;;;9.65;3.80;;;;;;;11.11;nan;96175.25;5070420;28;20575;-85
2022/05/20 01:36:43;;;;;;;11.35;4.10;;;;;;;11.19;nan;96215.41;5073998;28;20051;-85
2022/05/20 01:39:09;;;;;;;9.30;4.60;;;;;;;11.21;nan;96233.75;5081960;28;20506;-85
2022/05/20 01:41:48;;;;;;;10.32;3.78;;;;;;;11.47;nan;96291.34;5042673;28;20037;-85
2022/05/20 01:44:22;;;;;;;8.20;3.75;;;;;;;11.78;nan;96318.22;5050406;28;20267;-85
2022/05/20 01:46:57;;;;;;;10.73;3.78;;;;;;;11.82;nan;96322.00;5062602;28;20098;-85
2022/05/20 01:49:39;;;;;;;10.45;3.88;;;;;;;10.39;nan;96088.84;5052076;28;20198;-85
2022/05/20 01:52:38;;;;;;;9.48;3.97;;;;;;;11.85;nan;96318.81;5049649;28;20047;-86
2022/05/20 01:55:12;;;;;;;8.27;3.45;;;;;;;11.83;nan;96324.38;5046270;28;20041;-87
2022/05/20 01:57:47;;;;;;;13.38;3.30;;;;;;;11.83;nan;96319.06;5050201;28;20049;-86
2022/05/20 02:00:18;;;;;;;19.13;4.63;;;;;;;11.95;nan;96322.38;5045971;28;20037;-87
2022/05/20 02:02:57;;;;;;;16.70;3.42;;;;;;;10.76;nan;96183.66;5067280;28;20116;-86
2022/05/20 02:05:25;;;;;;;12.35;3.75;;;;;;;11.84;nan;96322.53;5071329;28;20451;-87
2022/05/20 02:08:01;;;;;;;14.98;4.32;;;;;;;11.85;nan;96321.47;5068722;28;20041;-86
2022/05/20 02:10:39;;;;;;;6.95;3.25;;;;;;;11.81;nan;96325.72;5049061;28;20045;-87
2022/05/20 02:13:08;;;;;;;13.73;3.95;;;;;;;10.78;nan;96171.75;5049076;28;20033;-86
2022/05/20 02:16:03;;;;;;;8.05;3.67;;;;;;;11.33;59.26;96258.28;5065232;28;20828;-80
2022/05/20 02:18:40;;;;;;;8.02;3.75;;;;;;;11.85;59.07;96338.22;5065066;28;20048;-80
2022/05/20 02:21:10;;;;;;;8.10;3.40;;;;;;;11.80;59.13;96332.88;5063677;28;20434;-79
2022/05/20 02:23:41;;;;;;;14.82;3.70;;;;;;;11.03;59.84;96242.88;5063636;28;20451;-80
2022/05/20 02:26:10;;;;;;;8.68;3.97;;;;;;;11.61;59.77;96335.06;5065316;28;20139;-80
2022/05/20 02:28:51;;;;;;;8.15;3.45;;;;;;;11.65;59.78;96337.22;5062881;28;20055;-80
2022/05/20 02:31:28;;;;;;;13.65;3.70;;;;;;;11.59;59.52;96336.38;5063079;28;20447;-80
2022/05/20 02:33:53;;;;;;;9.23;3.30;;;;;;;11.04;59.21;96260.41;5064612;28;20032;-79
2022/05/20 02:36:31;;;;;;;10.48;3.97;;;;;;;11.52;59.34;96314.50;5063111;28;20400;-80
2022/05/20 02:38:57;;;;;;;15.63;4.70;;;;;;;11.48;59.21;96324.03;5063639;28;20037;-80
2022/05/20 02:41:22;;;;;;;10.40;4.75;;;;;;;11.39;59.97;96336.16;5064917;28;20040;-80
2022/05/20 02:43:47;;;;;;;11.68;3.65;;;;;;;10.54;60.26;96217.38;5065035;28;20503;-81
2022/05/20 02:46:13;;;;;;;13.27;4.05;;;;;;;10.45;60.19;96180.66;5063538;28;20036;-81
2022/05/20 02:48:39;;;;;;;16.15;4.22;;;;;;;11.44;59.63;96329.03;5063473;28;20040;-80
2022/05/20 02:51:05;;;;;;;15.30;5.03;;;;;;;11.23;60.40;96332.53;5064191;28;20040;-80
2022/05/20 02:53:30;;;;;;;8.57;3.67;;;;;;;10.83;59.75;96232.06;5062935;28;20028;-80
2022/05/20 02:55:56;;;;;;;13.88;3.95;;;;;;;11.00;60.54;96311.56;5063217;28;20055;-81
2022/05/20 03:04:11;;;;;;;9.20;4.20;;;;;;;10.41;60.61;96222.00;5064983;28;20059;-81
2022/05/20 03:06:42;;;;;;;7.47;3.35;;;;;;;11.13;60.29;96327.13;5062737;28;20457;-80
2022/05/20 03:09:08;;;;;;;10.85;3.00;;;;;;;11.21;59.49;96324.81;5064317;28;20045;-81
2022/05/20 03:11:35;;;;;;;12.88;3.60;;;;;;;10.83;59.46;96251.41;5062478;28;20276;-80
2022/05/20 03:14:03;;;;;;;6.95;3.15;;;;;;;11.35;58.42;96325.25;5061795;28;20436;-80
2022/05/20 03:16:29;;;;;;;14.70;3.80;;;;;;;10.25;58.15;96147.81;5062934;28;20091;-80
2022/05/20 03:18:54;;;;;;;18.60;4.03;;;;;;;11.46;58.61;96339.41;5062848;28;20061;-81
2022/05/20 03:21:20;;;;;;;12.43;4.68;;;;;;;11.08;57.96;96268.66;5062335;28;20028;-81
2022/05/20 03:23:45;;;;;;;13.07;4.00;;;;;;;11.57;57.41;96328.66;5064161;28;20028;-81
2022/05/20 03:26:11;;;;;;;19.00;4.53;;;;;;;10.97;57.89;96249.19;5055637;28;20021;-81
2022/05/20 03:28:37;;;;;;;14.82;4.38;;;;;;;11.40;57.12;96305.91;5050732;28;20491;-81
2022/05/20 03:31:07;;;;;;;13.77;4.43;;;;;;;11.17;56.94;96265.31;5049494;28;20086;-80
2022/05/20 03:33:33;;;;;;;12.43;5.28;;;;;;;11.29;56.81;96280.31;5051049;28;20048;-81
2022/05/20 03:35:59;;;;;;;17.95;4.60;;;;;;;10.96;56.06;96215.72;5049520;28;20033;-81
2022/05/20 03:38:24;;;;;;;17.27;5.13;;;;;;;10.98;55.31;96212.84;5050986;28;20060;-82
2022/05/20 03:40:50;;;;;;;16.63;4.43;;;;;;;10.67;55.65;96174.56;5048654;28;20064;-81
2022/05/20 03:43:15;;;;;;;16.10;4.85;;;;;;;10.78;55.31;96200.94;5048728;28;20025;-81
2022/05/20 03:45:44;;;;;;;17.77;5.07;;;;;;;10.88;55.36;96225.97;5048842;28;20025;-81
2022/05/20 03:48:10;;;;;;;25.77;6.03;;;;;;;10.94;54.89;96239.06;5048486;28;20056;-81
2022/05/20 03:50:38;;;;;;;14.27;4.60;;;;;;;11.22;55.34;96326.44;5050227;28;20105;-81
2022/05/20 03:53:04;;;;;;;10.02;4.65;;;;;;;9.83;55.87;96132.44;5029884;28;20488;-81
2022/05/20 03:55:29;;;;;;;7.93;4.13;;;;;;;10.46;55.94;96263.69;5047898;28;20127;-80
2022/05/20 03:57:55;;;;;;;8.45;3.40;;;;;;;11.14;55.89;96381.81;5034553;28;20306;-80
2022/05/20 04:00:20;;;;;;;14.30;4.53;;;;;;;10.44;56.17;96287.03;5051323;28;20025;-81
2022/05/20 04:02:46;;;;;;;8.88;3.92;;;;;;;10.61;56.04;96303.66;5038065;28;20471;-81
2022/05/20 04:05:12;;;;;;;19.60;5.32;;;;;;;10.90;56.35;96352.09;5038721;28;20021;-81
2022/05/20 04:07:40;;;;;;;8.48;3.45;;;;;;;11.01;56.30;96353.78;5046977;28;20120;-81
2022/05/20 04:10:09;;;;;;;11.13;3.80;;;;;;;10.84;55.46;96318.53;5048576;28;20123;-81
2022/05/20 04:12:40;;;;;;;12.10;3.97;;;;;;;9.92;56.02;96164.59;5043704;28;20465;-81
2022/05/20 04:15:11;;;;;;;18.20;4.47;;;;;;;10.65;56.19;96262.34;5040034;28;20049;-81
2022/05/20 04:17:37;;;;;;;9.75;4.38;;;;;;;11.37;55.79;96378.09;5061368;28;20037;-81
2022/05/20 04:20:05;;;;;;;17.73;4.82;;;;;;;10.64;55.80;96258.09;5046493;28;20040;-81
2022/05/20 04:22:34;;;;;;;12.93;4.43;;;;;;;11.26;55.25;96323.28;5047480;28;20048;-81
2022/05/20 04:24:59;;;;;;;10.50;4.07;;;;;;;11.59;56.00;96371.69;5046528;28;20049;-80
2022/05/20 04:27:27;;;;;;;12.77;4.30;;;;;;;11.38;55.16;96322.06;5033143;28;20059;-81
2022/05/20 04:29:53;;;;;;;11.55;4.13;;;;;;;11.41;55.71;96318.94;5043539;28;20037;-81
2022/05/20 04:32:19;;;;;;;20.77;4.43;;;;;;;11.61;55.49;96351.00;5045408;28;20028;-80
2022/05/20 04:34:45;;;;;;;11.95;4.78;;;;;;;11.81;55.65;96379.66;5042991;28;20056;-81
2022/05/20 04:37:10;;;;;;;10.32;4.63;;;;;;;11.73;55.36;96381.94;5046219;28;20029;-81
2022/05/20 04:39:36;;;;;;;22.27;5.35;;;;;;;11.10;55.09;96261.25;5042910;28;20056;-81
2022/05/20 04:47:32;;;;;;;19.05;4.85;;;;;;;12.00;54.87;96380.09;5049604;28;20051;-80
2022/05/20 04:49:57;;;;;;;8.90;4.03;;;;;;;11.31;55.30;96288.81;5041950;28;20048;-80
2022/05/20 04:52:23;;;;;;;18.75;4.38;;;;;;;12.08;55.35;96384.94;5044767;28;20467;-80
2022/05/20 04:54:50;;;;;;;11.25;4.72;;;;;;;11.47;54.53;96286.03;5032045;28;20032;-80
2022/05/20 04:57:36;;;;;;;18.95;4.88;;;;;;;12.06;54.44;96392.38;5046220;28;20059;-81
2022/05/20 05:00:06;;;;;;;15.38;4.75;;;;;;;11.51;54.83;96350.91;5048230;28;20467;-80
2022/05/20 05:02:32;;;;;;;13.50;4.72;;;;;;;11.82;54.90;96375.16;5037960;28;20060;-81
2022/05/20 05:04:57;;;;;;;11.25;5.18;;;;;;;11.60;55.32;96337.97;5040117;28;20033;-81
2022/05/20 05:07:24;;;;;;;13.05;5.22;;;;;;;11.61;54.98;96308.50;5046974;28;20037;-81
2022/05/20 05:09:50;;;;;;;16.05;4.90;;;;;;;12.14;54.33;96367.16;5044188;28;20088;-81
2022/05/20 05:12:17;;;;;;;13.43;5.18;;;;;;;12.43;54.37;96399.59;5045720;28;20354;-80
2022/05/20 05:14:48;;;;;;;12.75;5.57;;;;;;;11.98;54.18;96313.06;5046662;28;20049;-80
2022/05/20 05:18:09;;;;;;;11.80;5.22;;;;;;;12.53;54.14;96402.31;5044765;28;20029;-81
2022/05/20 05:20:03;;;;;;;14.57;5.50;;;;;;;11.81;54.11;96309.78;5047113;28;20078;-81
2022/05/20 05:22:29;;;;;;;15.70;5.50;;;;;;;12.39;53.91;96356.72;5045547;28;20033;-81
2022/05/20 05:24:54;;;;;;;17.83;6.13;;;;;;;12.62;53.92;96368.84;5046601;28;20060;-81
2022/05/20 05:27:19;;;;;;;12.50;5.95;;;;;;;12.25;53.68;96300.53;5035638;28;20125;-81
2022/05/20 05:29:45;;;;;;;16.02;5.70;;;;;;;13.00;52.63;96399.69;5038682;28;20029;-81
2022/05/20 05:32:10;;;;;;;20.48;6.28;;;;;;;12.51;52.98;96330.72;5047384;28;20438;-81
2022/05/20 05:34:36;;;;;;;23.60;6.20;;;;;;;12.66;53.39;96338.78;5048335;28;20032;-81
2022/05/20 05:37:01;;;;;;;10.30;6.00;;;;;;;12.72;52.95;96353.75;5048763;28;20531;-81
2022/05/20 05:39:27;;;;;;;20.15;7.03;;;;;;;12.37;52.73;96345.53;5046492;28;20036;-81
2022/05/20 05:41:52;;;;;;;13.88;7.30;;;;;;;12.49;52.55;96338.19;5029981;28;20045;-81
2022/05/20 05:44:18;;;;;;;19.83;6.72;;;;;;;13.13;51.90;96393.91;5047434;28;20127;-81
2022/05/20 05:46:43;;;;;;;17.10;7.05;;;;;;;12.77;51.47;96318.38;5046444;28;20541;-81
2022/05/20 05:49:09;;;;;;;22.48;7.63;;;;;;;12.82;51.99;96304.25;5046647;28;20052;-81
2022/05/20 05:51:34;;;;;;;26.13;6.97;;;;;;;13.43;51.25;96390.56;5048480;28;20510;-80
2022/05/20 05:54:00;;;;;;;18.98;7.13;;;;;;;13.41;52.33;96390.03;5046921;28;20419;-81
2022/05/20 05:56:25;;;;;;;20.00;7.07;;;;;;;12.75;52.08;96259.25;5045150;28;20055;-80
2022/05/20 05:58:51;;;;;;;16.55;6.22;;;;;;;12.88;51.39;96288.06;5047300;28;20483;-81
2022/05/20 06:01:17;;;;;;;14.02;5.72;;;;;;;12.67;50.91;96246.44;5034679;28;20029;-81
2022/05/20 06:03:42;;;;;;;17.83;6.72;;;;;;;13.63;51.12;96389.84;5033235;28;20021;-81
2022/05/20 06:06:08;;;;;;;22.27;6.78;;;;;;;13.55;51.22;96364.50;5048813;28;20036;-81
2022/05/20 06:08:33;;;;;;;20.85;6.28;;;;;;;13.31;50.67;96312.72;5047014;28;20509;-80
2022/05/20 06:10:59;;;;;;;10.80;6.30;;;;;;;13.39;50.59;96314.88;5046637;28;20025;-81
2022/05/20 06:13:28;;;;;;;21.27;6.35;;;;;;;13.62;50.44;96373.03;5046699;28;20033;-80
2022/05/20 06:15:57;;;;;;;25.45;6.95;;;;;;;13.50;49.35;96338.59;5048328;28;20037;-81
2022/05/20 06:18:24;;;;;;;10.15;6.00;;;;;;;13.59;49.53;96365.56;5043672;28;20126;-81
2022/05/20 06:20:50;;;;;;;15.13;6.28;;;;;;;13.77;50.09;96378.41;5048155;28;20102;-81
2022/05/20 06:23:15;;;;;;;13.50;5.93;;;;;;;13.53;49.75;96326.63;5042522;28;20032;-81
2022/05/20 06:25:42;;;;;;;20.95;6.55;;;;;;;13.84;49.29;96357.59;5045779;28;20049;-82
2022/05/20 06:28:13;;;;;;;11.00;5.55;;;;;;;14.07;49.55;96379.50;5047879;28;20111;-81
2022/05/20 06:30:39;;;;;;;12.60;6.45;;;;;;;14.04;49.23;96377.34;5044822;28;20036;-81
2022/05/20 06:33:05;;;;;;;13.38;6.25;;;;;;;13.75;49.23;96316.53;5037922;28;20103;-81
2022/05/20 06:41:00;;;;;;;23.45;6.72;;;;;;;14.15;49.11;96378.97;5045567;28;20048;-81
2022/05/20 06:43:26;;;;;;;17.27;6.80;;;;;;;14.09;48.73;96337.34;5043004;28;20124;-81
2022/05/20 06:45:56;;;;;;;14.80;6.47;;;;;;;14.21;48.46;96359.22;5048482;28;20437;-81
2022/05/20 06:48:23;;;;;;;17.10;7.47;;;;;;;14.03;49.71;96347.22;5041712;28;20036;-81
2022/05/20 06:50:48;;;;;;;20.75;7.20;;;;;;;14.11;48.70;96337.91;5032249;28;20045;-81
2022/05/20 06:53:14;;;;;;;22.50;9.65;;;;;;;14.46;49.11;96369.13;5045202;28;20032;-81
2022/05/20 06:55:40;;;;;;;38.15;11.48;;;;;;;13.80;49.97;96265.09;5044481;28;20082;-81
2022/05/20 06:58:06;;;;;;;25.40;8.52;;;;;;;13.81;49.38;96283.47;5046903;28;20167;-81
2022/05/20 07:00:32;;;;;;;33.38;10.27;;;;;;;13.75;50.11;96262.41;5037570;28;20124;-81
2022/05/20 07:02:57;;;;;;;26.83;9.30;;;;;;;13.97;49.79;96286.13;5044831;28;20039;-81
2022/05/20 07:05:23;;;;;;;28.90;9.70;;;;;;;14.23;49.31;96307.19;5050468;28;20036;-82
2022/05/20 07:07:49;;;;;;;25.63;9.18;;;;;;;14.61;49.53;96367.22;5050017;28;20454;-81
2022/05/20 07:10:16;;;;;;;28.05;9.82;;;;;;;14.44;49.87;96356.03;5050183;28;20503;-82
2022/05/20 07:12:42;;;;;;;19.52;8.85;;;;;;;14.60;49.28;96362.94;5050141;28;20029;-81
2022/05/20 07:15:08;;;;;;;28.73;8.23;;;;;;;14.45;48.63;96316.81;5048763;28;20045;-81
2022/05/20 07:17:36;;;;;;;21.23;7.80;;;;;;;14.83;48.94;96372.25;5051026;28;20045;-81
2022/05/20 07:20:02;;;;;;;27.70;9.45;;;;;;;14.85;49.22;96361.31;5051286;28;20033;-81
2022/05/20 07:22:28;;;;;;;22.33;9.32;;;;;;;14.23;49.64;96283.19;5049489;28;20112;-81
2022/05/20 07:24:55;;;;;;;19.60;9.68;;;;;;;15.03;49.24;96368.72;5049016;28;20124;-81
2022/05/20 07:27:21;;;;;;;25.17;8.43;;;;;;;15.18;49.10;96371.31;5047330;28;20029;-81
2022/05/20 07:29:46;;;;;;;21.38;9.25;;;;;;;15.32;48.80;96359.00;5048255;28;20498;-80
2022/05/20 07:32:12;;;;;;;22.90;8.73;;;;;;;15.35;48.25;96349.63;5050132;28;20106;-81
2022/05/20 07:34:37;;;;;;;19.67;9.43;;;;;;;14.80;47.98;96273.19;5049195;28;20495;-82
2022/05/20 07:37:04;;;;;;;25.73;8.80;;;;;;;15.07;47.65;96293.09;5047962;28;20037;-81
2022/05/20 07:39:29;;;;;;;21.23;7.82;;;;;;;15.19;46.34;96319.47;5050627;28;20033;-81
2022/05/20 07:41:55;;;;;;;21.55;8.07;;;;;;;15.03;46.32;96297.38;5048689;28;20093;-81
2022/05/20 07:44:21;;;;;;;17.75;7.20;;;;;;;15.03;45.97;96289.38;5051800;28;20056;-82
2022/05/20 07:46:46;;;;;;;13.93;6.28;;;;;;;14.94;45.64;96272.34;5047587;28;20309;-82
2022/05/20 07:49:12;;;;;;;21.15;7.82;;;;;;;15.42;45.39;96340.22;5043748;28;20519;-80
2022/05/20 07:51:41;;;;;;;18.58;6.30;;;;;;;15.55;44.93;96325.50;5049106;28;20096;-80
2022/05/20 07:54:12;;;;;;;34.53;9.35;;;;;;;15.27;45.62;96284.16;5049458;28;20044;-79
2022/05/20 07:56:49;;;;;;;24.08;8.73;;;;;;;15.27;45.78;96254.78;5046736;28;20944;-81
2022/05/20 07:59:41;;;;;;;25.15;8.93;;;;;;;15.74;45.35;96334.44;5049432;28;20029;-81
2022/05/20 08:02:08;;;;;;;20.23;7.13;;;;;;;15.64;44.38;96315.78;5041782;28;20051;-80
2022/05/20 08:05:00;;;;;;;19.63;7.88;;;;;;;15.48;43.69;96273.38;5049190;28;20036;-80
2022/05/20 08:07:28;;;;;;;22.90;7.45;;;;;;;15.59;43.96;96273.03;5049349;28;20418;-82
2022/05/20 08:09:55;;;;;;;20.02;6.43;;;;;;;15.83;43.77;96327.44;5045450;28;20041;-80
2022/05/20 08:12:21;;;;;;;18.20;7.00;;;;;;;15.99;44.02;96330.00;5047494;28;20032;-80
2022/05/20 08:14:48;;;;;;;14.00;6.32;;;;;;;15.52;42.84;96247.66;5049775;28;20446;-80
2022/05/20 08:17:14;;;;;;;16.98;5.95;;;;;;;16.00;42.06;96323.56;5048578;28;20067;-80
2022/05/20 08:19:39;;;;;;;17.60;5.70;;;;;;;16.27;41.88;96331.91;5050013;28;20079;-80
2022/05/20 08:22:06;;;;;;;24.67;6.35;;;;;;;15.68;41.05;96228.59;5047789;28;20025;-80
2022/05/20 08:24:32;;;;;;;18.02;5.55;;;;;;;15.99;40.79;96241.72;5046836;28;20029;-80
2022/05/20 08:26:58;;;;;;;17.83;6.45;;;;;;;16.18;42.23;96259.44;5045201;28;20431;-80
2022/05/20 08:29:24;;;;;;;19.50;5.68;;;;;;;16.60;40.51;96319.56;5045445;28;20071;-80
2022/05/20 08:31:50;;;;;;;21.30;5.80;;;;;;;16.07;40.12;96212.47;5044979;28;20515;-80
2022/05/20 08:34:16;;;;;;;15.65;5.30;;;;;;;16.82;39.92;96319.88;5049034;28;20254;-81
2022/05/20 08:36:42;;;;;;;15.95;5.38;;;;;;;16.31;38.92;96243.81;5042249;28;20063;-80
2022/05/20 08:39:12;;;;;;;17.77;3.70;;;;;;;16.41;38.76;96246.38;5042667;28;20049;-81
2022/05/20 08:41:59;;;;;;;13.10;3.30;;;;;;;16.93;38.92;96301.81;5038486;28;20059;-81
2022/05/20 08:44:24;;;;;;;13.32;5.07;;;;;;;16.95;38.15;96308.47;5058205;28;20111;-81
2022/05/20 08:46:51;;;;;;;7.60;3.58;;;;;;;16.84;37.99;96268.69;5047759;28;20499;-80
2022/05/20 08:49:21;;;;;;;20.58;4.25;;;;;;;17.15;37.43;96301.28;5048654;28;20415;-80
2022/05/20 08:51:53;;;;;;;22.13;4.32;;;;;;;17.11;37.61;96289.50;5047940;28;20427;-80
2022/05/20 08:54:20;;;;;;;16.80;4.10;;;;;;;17.09;36.76;96270.25;5049620;28;20055;-80
2022/05/20 08:56:46;;;;;;;8.30;3.13;;;;;;;16.75;36.32;96195.41;5048789;28;20040;-80
2022/05/20 08:59:16;;;;;;;11.25;3.83;;;;;;;17.47;36.80;96295.22;5046959;28;20033;-80
2022/05/20 09:01:50;;;;;;;12.93;3.10;;;;;;;16.70;35.93;96172.16;5044533;28;20036;-80
2022/05/20 09:04:19;;;;;;;9.02;2.90;;;;;;;17.52;35.98;96284.41;5040523;28;20477;-79
2022/05/20 09:07:01;;;;;;;8.73;2.88;;;;;;;17.63;36.38;96277.81;5045177;28;20040;-81
2022/05/20 09:09:41;;;;;;;9.98;3.05;;;;;;;17.79;35.69;96264.97;5047774;28;20037;-81
2022/05/20 09:12:08;;;;;;;12.77;2.80;;;;;;;17.74;36.20;96260.50;5049310;28;20025;-81
2022/05/20 09:17:21;;;;;;;9.57;2.83;;;;;;;17.67;33.01;96195.69;5047571;28;20071;-80
2022/05/20 09:20:04;;;;;;;7.55;1.95;;;;;;;18.10;30.64;96252.66;5048208;28;20357;-81
2022/05/20 09:22:35;;;;;;;10.52;2.70;;;;;;;18.16;31.60;96243.41;5042600;28;20044;-80
2022/05/20 09:25:01;;;;;;;9.48;2.40;;;;;;;17.90;31.58;96194.75;5047787;28;20029;-80
2022/05/20 09:27:31;;;;;;;7.10;2.30;;;;;;;18.24;30.46;96239.25;5037113;28;20064;-80
2022/05/20 09:30:19;;;;;;;8.20;2.63;;;;;;;18.30;30.65;96240.78;5038656;28;20445;-81
2022/05/20 09:33:09;;;;;;;9.68;2.58;;;;;;;17.90;30.71;96167.94;5030906;28;20541;-81
2022/05/20 09:35:35;;;;;;;17.92;2.50;;;;;;;18.22;30.67;96196.63;5043577;28;20040;-81
2022/05/20 09:38:16;;;;;;;4.30;1.90;;;;;;;18.39;31.41;96202.19;5039165;28;20166;-81
2022/05/20 09:40:48;;;;;;;7.32;2.08;;;;;;;18.20;31.10;96144.28;5046315;28;20706;-80
2022/05/20 09:43:19;;;;;;;;;;;;;;;19.05;28.75;96208.94;5043592;28;20043;-81
2022/05/20 09:45:48;;;;;;;2.38;1.70;;;;;;;19.48;26.85;96142.06;5047887;28;19923;-81
2022/05/20 09:48:36;;;;;;;13.15;2.20;;;;;;;20.78;25.74;96192.78;5046207;28;20037;-81
2022/05/20 09:51:15;;;;;;;6.13;1.83;;;;;;;21.84;24.43;96220.31;5048224;28;20029;-81
2022/05/20 09:53:43;;;;;;;7.55;2.20;;;;;;;22.80;23.23;96176.50;5043627;28;20517;-81
2022/05/20 09:56:26;;;;;;;5.85;1.77;;;;;;;23.49;21.96;96150.91;5045469;28;20514;-81
2022/05/20 09:59:12;;;;;;;6.03;1.70;;;;;;;24.28;20.42;96210.19;5041696;28;20464;-81
2022/05/20 10:01:40;;;;;;;3.92;1.52;;;;;;;25.00;19.55;96203.28;5037839;28;20163;-81
2022/05/20 10:04:11;;;;;;;3.58;1.85;;;;;;;26.00;18.83;96202.31;5042768;28;20090;-81
2022/05/20 10:06:46;;;;;;;12.50;2.10;;;;;;;25.54;18.88;96135.81;5036068;28;20040;-81
2022/05/20 10:09:31;;;;;;;4.30;1.80;;;;;;;27.23;18.50;96198.41;5042277;28;20026;-80
2022/05/20 10:12:12;;;;;;;8.32;1.77;;;;;;;27.06;17.54;96168.06;5036620;28;20411;-81
2022/05/20 10:15:01;;;;;;;8.43;2.15;;;;;;;27.45;17.80;96117.94;5043465;28;20049;-81
2022/05/20 10:17:46;;;;;;;7.65;1.85;;;;;;;28.09;17.43;96187.31;5044172;28;20029;-82
2022/05/20 10:20:22;;;;;;;2.75;1.42;;;;;;;28.19;16.59;96148.59;5046009;28;20060;-81
2022/05/20 10:23:11;;;;;;;3.30;1.35;;;;;;;28.86;17.91;96180.88;5047676;28;20041;-81
2022/05/20 10:25:48;;;;;;;7.80;1.90;;;;;;;28.84;18.36;96175.03;5043308;28;20182;-82
2022/05/20 10:34:11;;;;;;;3.78;1.60;;;;;;;29.68;16.37;96155.50;5046619;28;20137;-81
2022/05/20 10:37:12;;;;;;;4.78;1.90;;;;;;;29.77;16.66;96156.00;5048494;28;20045;-82
2022/05/20 10:39:56;;;;;;;9.68;1.63;;;;;;;29.61;17.04;96160.88;5029424;28;20052;-81
2022/05/20 10:42:46;;;;;;;4.28;2.00;;;;;;;29.89;15.91;96150.28;5049437;28;20033;-81
2022/05/20 10:51:32;;;;;;;6.95;1.52;;;;;;;30.38;14.30;96141.78;5048687;28;20596;-82
2022/05/20 10:54:20;;;;;;;7.47;2.30;;;;;;;29.68;14.86;96141.81;5048671;28;20161;-82
2022/05/20 10:57:14;;;;;;;6.53;2.17;;;;;;;30.00;15.49;96120.31;5048147;28;20039;-81
2022/05/20 10:59:49;;;;;;;3.17;1.30;;;;;;;29.49;14.31;96124.44;5041321;28;20024;-82
2022/05/20 11:02:35;;;;;;;5.35;1.75;;;;;;;30.01;14.00;96130.09;5050683;28;20041;-81
2022/05/20 11:05:20;;;;;;;5.53;1.50;;;;;;;29.87;14.41;96125.25;5049794;28;20036;-81
2022/05/20 11:08:02;;;;;;;4.45;1.30;;;;;;;30.03;15.10;96120.38;5052918;28;20283;-81
2022/05/20 11:10:30;;;;;;;5.45;1.73;;;;;;;30.30;15.97;96123.72;5049049;28;20032;-81
2022/05/20 11:13:20;;;;;;;4.68;1.30;;;;;;;30.13;12.95;96116.19;5051001;28;20450;-81
2022/05/20 11:16:09;;;;;;;3.67;1.42;;;;;;;30.63;13.99;96109.97;5048322;28;20086;-81
2022/05/20 11:18:40;;;;;;;2.22;1.02;;;;;;;30.67;12.61;96108.03;5048829;28;20491;-81
2022/05/20 11:21:24;;;;;;;6.28;1.20;;;;;;;30.59;12.27;96094.69;5047506;28;20025;-81
2022/05/20 11:24:08;;;;;;;4.20;1.67;;;;;;;30.97;13.39;96110.56;5049778;28;20029;-81
2022/05/20 11:26:51;;;;;;;6.05;1.45;;;;;;;30.49;12.00;96090.69;5048432;28;20033;-81
2022/05/20 11:29:34;;;;;;;6.35;1.48;;;;;;;30.79;12.07;96092.47;5049395;28;20368;-81
2022/05/20 11:32:07;;;;;;;4.28;1.50;;;;;;;30.50;14.00;96075.84;5049073;28;20090;-81
2022/05/20 11:35:05;;;;;;;5.20;1.73;;;;;;;31.06;14.07;96097.34;5049527;28;20033;-82
2022/05/20 11:37:42;;;;;;;8.07;1.50;;;;;;;30.58;12.77;96087.66;5051079;28;20029;-81
2022/05/20 11:40:35;;;;;;;4.13;2.00;;;;;;;29.89;12.55;96027.22;5049203;28;20033;-81
2022/05/20 11:43:10;;;;;;;3.55;1.17;;;;;;;30.25;13.50;96074.84;5050116;28;20166;-82
2022/05/20 11:46:03;;;;;;;5.72;1.40;;;;;;;30.34;12.77;96080.00;5051582;28;20021;-81
2022/05/20 11:49:08;;;;;;;4.53;1.67;;;;;;;30.14;12.97;96074.75;5050110;28;20037;-81
2022/05/20 11:52:15;;;;;;;5.07;1.60;;;;;;;30.43;12.86;96066.78;5048842;28;20132;-81
2022/05/20 11:54:51;;;;;;;3.50;1.42;;;;;;;29.98;14.56;96005.06;5049219;28;20033;-81
2022/05/20 11:57:22;;;;;;;4.40;1.08;;;;;;;30.42;12.08;96008.53;5048876;28;20028;-81
2022/05/20 12:00:06;;;;;;;3.05;1.35;;;;;;;29.87;12.13;96002.22;5050949;28;20487;-81
2022/05/20 12:02:43;;;;;;;5.50;2.08;;;;;;;30.37;12.19;96030.75;5048251;28;20036;-82
2022/05/20 12:05:15;;;;;;;5.47;2.30;;;;;;;31.09;13.38;96057.44;5036354;28;20017;-82
2022/05/20 12:07:42;;;;;;;5.85;1.48;;;;;;;31.01;15.55;96012.00;5048865;28;20566;-82
2022/05/20 12:10:37;;;;;;;3.83;1.30;;;;;;;31.20;13.54;96043.81;5049036;28;20525;-82
2022/05/20 12:13:18;;;;;;;3.90;1.20;;;;;;;31.06;14.76;95987.78;5041229;28;20526;-83
2022/05/20 12:15:48;;;;;;;3.33;1.50;;;;;;;31.68;14.53;96044.34;5050292;28;20029;-82
2022/05/20 12:24:22;;;;;;;6.32;1.58;;;;;;;31.75;14.79;96011.47;5049768;28;20036;-82
2022/05/20 12:26:50;;;;;;;3.55;1.48;;;;;;;32.05;12.71;96000.13;5048600;28;20128;-82
2022/05/20 12:29:34;;;;;;;2.58;1.17;;;;;;;32.03;12.93;96024.44;5048368;28;20033;-82